Time;durP1;ratioP1;P1;durP2;ratioP2;P2;SDS_P1;SDS_P2;PMS_P1;PMS_P2;Temp;Humidity;BMP_temperature;BMP_pressure;BME280_temperature;BME280_humidity;BME280_pressure;Samples;Min_cycle;Max_cycle;Signal;HPM_P1;HPM_P2
2022/05/23 00:01:43;;;;;;;5.60;0.85;;;14.70;96.50;;;;;;5070824;28;20434;-47
2022/05/23 00:04:08;;;;;;;2.80;0.60;;;14.70;96.40;;;;;;5071106;28;20050;-47
2022/05/23 00:06:34;;;;;;;3.92;0.60;;;14.70;96.40;;;;;;5070554;28;20043;-46
2022/05/23 00:09:00;;;;;;;4.22;1.35;;;14.70;96.60;;;;;;5071320;28;20044;-46
2022/05/23 00:11:26;;;;;;;2.72;0.70;;;14.60;96.60;;;;;;5070140;28;20045;-47
2022/05/23 00:13:52;;;;;;;1.85;0.50;;;14.60;96.70;;;;;;5070943;28;20661;-47
2022/05/23 00:16:20;;;;;;;4.43;0.60;;;14.60;96.80;;;;;;5070128;28;20113;-46
2022/05/23 00:18:47;;;;;;;2.47;0.70;;;14.60;96.80;;;;;;5070759;28;20068;-46
2022/05/23 00:21:13;;;;;;;4.25;0.75;;;14.60;97.20;;;;;;5070307;28;20378;-47
2022/05/23 00:23:39;;;;;;;3.08;0.77;;;14.60;97.20;;;;;;5070390;28;20037;-46
2022/05/23 00:26:05;;;;;;;1.95;0.60;;;14.60;97.40;;;;;;5068997;28;21435;-46
2022/05/23 00:28:30;;;;;;;3.05;0.80;;;14.50;97.30;;;;;;5070833;28;20067;-47
2022/05/23 00:30:56;;;;;;;2.97;0.50;;;14.50;97.40;;;;;;5070174;28;20390;-46
2022/05/23 00:36:06;;;;;;;4.68;0.65;;;14.50;97.70;;;;;;5068169;28;20044;-46
2022/05/23 00:38:32;;;;;;;1.75;0.70;;;14.40;97.60;;;;;;5070218;28;20131;-48
2022/05/23 00:43:58;;;;;;;7.00;0.70;;;14.40;97.80;;;;;;5068877;28;19920;-46
2022/05/23 00:46:24;;;;;;;2.13;0.90;;;14.40;97.70;;;;;;5070051;28;20072;-46
2022/05/23 00:48:50;;;;;;;2.72;0.70;;;14.40;97.60;;;;;;5069933;28;20509;-47
2022/05/23 00:51:17;;;;;;;5.18;0.88;;;14.40;97.70;;;;;;5069648;28;20371;-47
2022/05/23 00:53:56;;;;;;;4.63;0.90;;;14.40;97.80;;;;;;5070087;28;20037;-46
2022/05/23 00:56:31;;;;;;;4.72;1.00;;;14.30;98.10;;;;;;5054921;28;20139;-46
2022/05/23 00:59:01;;;;;;;6.32;1.50;;;14.30;98.20;;;;;;5050703;28;20434;-47
2022/05/23 01:01:30;;;;;;;4.28;0.85;;;14.30;98.30;;;;;;5067924;28;20453;-48
2022/05/23 01:03:56;;;;;;;2.38;0.80;;;14.20;98.50;;;;;;5069958;28;20525;-47
2022/05/23 01:06:21;;;;;;;3.70;0.77;;;14.20;98.60;;;;;;5069199;28;20059;-46
2022/05/23 01:08:49;;;;;;;2.92;1.17;;;14.10;98.80;;;;;;5070920;28;20111;-47
2022/05/23 01:11:15;;;;;;;1.95;0.65;;;14.20;98.90;;;;;;5069769;28;20036;-46
2022/05/23 01:13:41;;;;;;;2.80;0.85;;;14.10;99.10;;;;;;5069854;28;20054;-46
2022/05/23 01:16:06;;;;;;;;;;;14.10;98.70;;;;;;5069534;28;20110;-46
2022/05/23 01:18:32;;;;;;;5.30;1.23;;;14.10;98.90;;;;;;5070060;28;20340;-47
2022/05/23 01:21:02;;;;;;;3.92;0.63;;;14.10;98.80;;;;;;5070147;28;20028;-47
2022/05/23 01:23:38;;;;;;;2.80;1.00;;;14.10;98.80;;;;;;5069186;28;20058;-47
2022/05/23 01:26:04;;;;;;;3.83;0.77;;;14.10;98.90;;;;;;5057244;28;20037;-47
2022/05/23 01:28:38;;;;;;;2.30;1.15;;;14.10;98.70;;;;;;5049704;28;20556;-48
2022/05/23 01:31:05;;;;;;;4.88;1.00;;;14.10;98.70;;;;;;5059311;28;20454;-47
2022/05/23 01:33:31;;;;;;;1.67;0.73;;;14.10;98.90;;;;;;5069502;28;20051;-47
2022/05/23 01:35:57;;;;;;;;;;;14.10;98.90;;;;;;5068847;28;20447;-46
2022/05/23 01:38:24;;;;;;;2.15;0.60;;;14.10;99.20;;;;;;5068410;28;20385;-47
2022/05/23 01:40:50;;;;;;;5.07;0.88;;;14.00;99.30;;;;;;5060219;28;20072;-47
2022/05/23 01:43:16;;;;;;;3.15;0.82;;;14.10;99.50;;;;;;5054740;28;20112;-47
2022/05/23 01:45:41;;;;;;;1.73;1.00;;;14.00;99.80;;;;;;5068739;28;20116;-47
2022/05/23 01:48:08;;;;;;;3.90;1.25;;;14.00;99.90;;;;;;5069550;28;20082;-46
2022/05/23 01:50:33;;;;;;;3.40;0.52;;;14.00;99.90;;;;;;5069235;28;20036;-46
2022/05/23 01:52:59;;;;;;;3.20;0.90;;;14.00;99.90;;;;;;5069543;28;20055;-47
2022/05/23 01:55:25;;;;;;;3.05;0.70;;;14.00;99.90;;;;;;5066753;28;20040;-46
2022/05/23 01:57:51;;;;;;;;;;;14.00;99.90;;;;;;5069894;28;20418;-48
2022/05/23 02:03:01;;;;;;;1.88;0.88;;;13.90;99.90;;;;;;5069193;28;20119;-47
2022/05/23 02:05:27;;;;;;;2.25;0.60;;;13.90;99.90;;;;;;5067222;28;20040;-46
2022/05/23 02:07:54;;;;;;;5.07;1.02;;;13.90;99.90;;;;;;5069132;28;20036;-47
2022/05/23 02:10:19;;;;;;;;;;;13.90;99.90;;;;;;5069230;28;20990;-46
2022/05/23 02:12:45;;;;;;;4.13;1.17;;;13.90;99.90;;;;;;5084385;28;20006;-47
2022/05/23 02:15:11;;;;;;;5.10;0.80;;;13.90;99.90;;;;;;5068594;28;20043;-47
2022/05/23 02:17:38;;;;;;;4.53;1.05;;;13.90;99.90;;;;;;5069197;28;20090;-46
2022/05/23 02:20:06;;;;;;;5.07;0.95;;;13.90;99.90;;;;;;5069302;28;20043;-46
2022/05/23 02:22:32;;;;;;;3.97;1.60;;;13.90;99.90;;;;;;5067920;28;20481;-46
2022/05/23 02:24:58;;;;;;;1.85;0.80;;;13.90;99.90;;;;;;5068041;28;20486;-46
2022/05/23 02:27:23;;;;;;;4.82;0.60;;;13.90;99.90;;;;;;5067878;28;20087;-47
2022/05/23 02:29:49;;;;;;;7.55;1.00;;;13.90;99.90;;;;;;5069135;28;20036;-46
2022/05/23 02:32:14;;;;;;;4.28;1.25;;;13.90;99.90;;;;;;5066803;28;20037;-46
2022/05/23 02:34:41;;;;;;;5.32;0.82;;;13.90;99.90;;;;;;5069204;28;20050;-46
2022/05/23 02:37:08;;;;;;;2.45;0.95;;;13.90;99.90;;;;;;5056245;28;20127;-46
2022/05/23 02:39:33;;;;;;;3.60;0.60;;;13.90;99.90;;;;;;5061563;28;20056;-46
2022/05/23 02:41:59;;;;;;;3.03;1.00;;;13.90;99.90;;;;;;5067962;28;20098;-47
2022/05/23 02:44:24;;;;;;;3.75;0.90;;;13.90;99.90;;;;;;5061118;28;20115;-47
2022/05/23 02:46:50;;;;;;;4.30;0.88;;;13.90;99.90;;;;;;5061917;28;20405;-46
2022/05/23 02:49:15;;;;;;;2.53;1.13;;;13.80;99.90;;;;;;5069281;28;20413;-47
2022/05/23 02:51:41;;;;;;;4.10;0.80;;;13.80;99.90;;;;;;5072204;28;20843;-46
2022/05/23 02:54:07;;;;;;;6.10;1.17;;;13.80;99.90;;;;;;5072499;28;20418;-47
2022/05/23 02:56:34;;;;;;;5.10;0.80;;;13.80;99.90;;;;;;5071647;28;20740;-46
2022/05/23 02:59:00;;;;;;;2.75;0.93;;;13.80;99.90;;;;;;5071190;28;20044;-47
2022/05/23 03:01:26;;;;;;;4.45;1.25;;;13.80;99.90;;;;;;5071757;28;20438;-47
2022/05/23 03:03:51;;;;;;;4.40;1.42;;;13.80;99.90;;;;;;5071986;28;20037;-46
2022/05/23 03:06:17;;;;;;;5.32;1.10;;;13.80;99.90;;;;;;5071052;28;20524;-46
2022/05/23 03:08:43;;;;;;;5.80;1.38;;;13.80;99.90;;;;;;5072290;28;20101;-46
2022/05/23 03:11:09;;;;;;;2.63;1.30;;;13.80;99.90;;;;;;5071987;28;20039;-47
2022/05/23 03:13:35;;;;;;;6.35;1.83;;;13.70;99.90;;;;;;5072370;28;20173;-47
2022/05/23 03:16:01;;;;;;;4.13;1.52;;;13.70;99.90;;;;;;5071027;28;20490;-48
2022/05/23 03:18:27;;;;;;;4.82;1.60;;;13.70;99.90;;;;;;5061530;28;20051;-47
2022/05/23 03:21:00;;;;;;;1.77;1.00;;;13.70;99.90;;;;;;5071936;28;20042;-46
2022/05/23 03:28:55;;;;;;;3.03;1.27;;;13.70;99.90;;;;;;5066597;28;20044;-46
2022/05/23 03:31:20;;;;;;;6.57;1.60;;;13.70;99.90;;;;;;5070799;28;20040;-46
2022/05/23 03:33:46;;;;;;;3.58;1.35;;;13.70;99.90;;;;;;5071605;28;20048;-46
2022/05/23 03:36:12;;;;;;;7.05;1.38;;;13.70;99.90;;;;;;5069858;28;20045;-46
2022/05/23 03:38:37;;;;;;;3.07;1.03;;;13.70;99.90;;;;;;5071916;28;20049;-47
2022/05/23 03:41:09;;;;;;;5.43;1.53;;;13.70;99.90;;;;;;5071658;28;20660;-46
2022/05/23 03:43:35;;;;;;;6.55;1.77;;;13.70;99.90;;;;;;5070130;28;20330;-46
2022/05/23 03:46:09;;;;;;;4.95;1.65;;;13.70;99.90;;;;;;5070515;28;20037;-46
2022/05/23 03:48:35;;;;;;;4.28;2.00;;;13.70;99.90;;;;;;5071630;28;20040;-46
2022/05/23 03:51:01;;;;;;;6.85;2.25;;;13.60;99.90;;;;;;5071522;28;20501;-46
2022/05/23 03:53:28;;;;;;;4.03;1.50;;;13.60;99.90;;;;;;5070905;28;20438;-47
2022/05/23 03:55:53;;;;;;;10.32;2.03;;;13.60;99.90;;;;;;5069978;28;20051;-46
2022/05/23 03:58:19;;;;;;;2.53;1.40;;;13.60;99.90;;;;;;5071402;28;20037;-46
2022/05/23 04:00:49;;;;;;;5.90;1.70;;;13.60;99.90;;;;;;5071152;28;20040;-46
2022/05/23 04:03:15;;;;;;;6.80;2.05;;;13.60;99.90;;;;;;5070696;28;20117;-46
2022/05/23 04:05:41;;;;;;;;;;;13.60;99.90;;;;;;5071189;28;20051;-46
2022/05/23 04:08:07;;;;;;;3.75;2.03;;;13.60;99.90;;;;;;5071349;28;19916;-46
2022/05/23 04:10:33;;;;;;;4.45;2.03;;;13.60;99.90;;;;;;5069678;28;20037;-46
2022/05/23 04:13:01;;;;;;;4.32;1.58;;;13.60;99.90;;;;;;5070538;28;20044;-48
2022/05/23 04:15:27;;;;;;;7.35;2.35;;;13.60;99.90;;;;;;5070310;28;20048;-47
2022/05/23 04:17:52;;;;;;;5.00;1.45;;;13.60;99.90;;;;;;5069503;28;20409;-46
2022/05/23 04:20:18;;;;;;;5.15;1.58;;;13.60;99.90;;;;;;5071359;28;20044;-46
2022/05/23 04:22:44;;;;;;;3.80;1.75;;;13.70;99.90;;;;;;5069850;28;20409;-46
2022/05/23 04:25:09;;;;;;;3.60;1.40;;;13.60;99.90;;;;;;5070067;28;20454;-47
2022/05/23 04:27:35;;;;;;;3.67;1.63;;;13.60;99.90;;;;;;5069681;28;20094;-47
2022/05/23 04:30:02;;;;;;;3.08;1.95;;;13.60;99.90;;;;;;5071281;28;20397;-48
2022/05/23 04:35:15;;;;;;;8.35;1.90;;;13.70;99.90;;;;;;5068506;28;20059;-46
2022/05/23 04:37:45;;;;;;;7.55;1.90;;;13.70;99.90;;;;;;5067704;28;20038;-46
2022/05/23 04:40:14;;;;;;;3.67;1.85;;;13.80;99.90;;;;;;5067828;28;20040;-49
2022/05/23 04:42:40;;;;;;;9.10;2.50;;;13.80;99.90;;;;;;5069562;28;20040;-47
2022/05/23 04:45:06;;;;;;;3.22;2.10;;;13.80;99.90;;;;;;5069437;28;20512;-47
2022/05/23 04:50:15;;;;;;;6.00;2.50;;;13.90;99.90;;;;;;5069923;28;20037;-48
2022/05/23 04:52:42;;;;;;;5.75;2.13;;;13.90;99.90;;;;;;5069609;28;20135;-46
2022/05/23 04:55:09;;;;;;;6.00;2.47;;;13.90;99.90;;;;;;5069401;28;20051;-47
2022/05/23 04:57:34;;;;;;;3.10;1.85;;;14.00;99.90;;;;;;5070009;28;20402;-47
2022/05/23 05:00:02;;;;;;;4.25;2.58;;;14.00;99.90;;;;;;5070600;28;20489;-46
2022/05/23 05:02:28;;;;;;;8.15;2.42;;;14.10;99.90;;;;;;5068461;28;20048;-47
2022/05/23 05:04:53;;;;;;;6.35;2.30;;;14.10;99.90;;;;;;5070014;28;20469;-46
2022/05/23 05:07:19;;;;;;;4.47;2.03;;;14.10;99.90;;;;;;5069303;28;20119;-47
2022/05/23 05:09:44;;;;;;;2.70;2.40;;;14.10;99.90;;;;;;5070326;28;20302;-47
2022/05/23 05:12:10;;;;;;;10.27;2.90;;;14.10;99.90;;;;;;5069016;28;20278;-48
2022/05/23 05:14:36;;;;;;;7.13;3.75;;;14.20;99.90;;;;;;5069411;28;20040;-47
2022/05/23 05:17:02;;;;;;;4.63;2.90;;;14.10;99.90;;;;;;5068163;28;20533;-47
2022/05/23 05:19:28;;;;;;;7.30;3.05;;;14.20;99.90;;;;;;5068578;28;20089;-47
2022/05/23 05:21:54;;;;;;;9.88;3.42;;;14.20;99.90;;;;;;5068799;28;20520;-46
2022/05/23 05:24:19;;;;;;;4.28;2.83;;;14.20;99.90;;;;;;5069590;28;20032;-47
2022/05/23 05:26:45;;;;;;;9.30;4.32;;;14.20;99.90;;;;;;5069287;28;20162;-47
2022/05/23 05:29:10;;;;;;;5.53;3.30;;;14.20;99.90;;;;;;5069048;28;20071;-46
2022/05/23 05:31:48;;;;;;;9.88;3.60;;;14.40;99.90;;;;;;5069584;28;20332;-46
2022/05/23 05:34:24;;;;;;;6.28;4.03;;;14.50;99.90;;;;;;5067785;28;20040;-46
2022/05/23 05:36:55;;;;;;;9.70;3.63;;;14.60;99.90;;;;;;5069190;28;20040;-46
2022/05/23 05:39:23;;;;;;;4.85;3.15;;;14.70;99.90;;;;;;5070115;28;20433;-47
2022/05/23 05:41:53;;;;;;;7.45;3.40;;;14.80;99.90;;;;;;5069177;28;20052;-47
2022/05/23 05:44:21;;;;;;;6.22;3.85;;;14.90;99.90;;;;;;5069114;28;20045;-47
2022/05/23 05:46:51;;;;;;;6.25;4.25;;;15.10;99.90;;;;;;5067393;28;20393;-46
2022/05/23 05:49:22;;;;;;;14.57;4.20;;;15.20;99.90;;;;;;5067664;28;20036;-46
2022/05/23 05:51:50;;;;;;;6.70;3.45;;;15.30;99.90;;;;;;5068393;28;20085;-48
2022/05/23 05:54:21;;;;;;;7.03;2.80;;;15.40;99.90;;;;;;5069051;28;20098;-49
2022/05/23 05:56:47;;;;;;;6.25;2.80;;;15.50;99.90;;;;;;5068535;28;20072;-47
2022/05/23 05:59:13;;;;;;;5.80;3.35;;;15.50;99.90;;;;;;5069448;28;20080;-49
2022/05/23 06:01:40;;;;;;;7.60;3.85;;;15.60;99.90;;;;;;5067537;28;20047;-47
2022/05/23 06:04:06;;;;;;;10.45;3.88;;;15.70;99.90;;;;;;5069808;28;20115;-47
2022/05/23 06:12:00;;;;;;;6.88;3.42;;;15.90;99.90;;;;;;5068053;28;20041;-44
2022/05/23 06:14:26;;;;;;;6.80;3.80;;;16.00;99.90;;;;;;5068638;28;20028;-44
2022/05/23 06:16:51;;;;;;;9.30;4.18;;;16.10;99.90;;;;;;5067585;28;20039;-45
2022/05/23 06:19:17;;;;;;;122.10;13.38;;;16.20;99.90;;;;;;5069315;28;20047;-45
2022/05/23 06:21:43;;;;;;;565.28;55.88;;;16.30;99.90;;;;;;5067871;28;20050;-46
2022/05/23 06:24:09;;;;;;;7.45;3.63;;;16.40;99.90;;;;;;5067464;28;20379;-45
2022/05/23 06:26:34;;;;;;;13.23;4.82;;;16.50;99.90;;;;;;5069234;28;20044;-47
2022/05/23 06:29:00;;;;;;;8.90;3.08;;;16.60;99.90;;;;;;5072656;28;20040;-44
2022/05/23 06:31:25;;;;;;;6.70;3.92;;;16.60;99.90;;;;;;5072923;28;20032;-47
2022/05/23 06:33:51;;;;;;;8.20;3.42;;;16.70;99.90;;;;;;5072552;28;20044;-45
2022/05/23 06:36:18;;;;;;;8.68;3.90;;;16.80;99.90;;;;;;5072188;28;20045;-45
2022/05/23 06:38:44;;;;;;;7.05;3.45;;;16.80;99.90;;;;;;5070208;28;20045;-45
2022/05/23 06:41:10;;;;;;;10.77;4.35;;;16.90;99.90;;;;;;5071677;28;20109;-45
2022/05/23 06:43:38;;;;;;;13.75;4.40;;;17.00;99.90;;;;;;5071063;28;20091;-45
2022/05/23 06:46:04;;;;;;;9.73;3.92;;;17.10;99.90;;;;;;5072116;28;20037;-44
2022/05/23 06:48:31;;;;;;;15.10;4.00;;;17.10;99.90;;;;;;5072058;28;20412;-45
2022/05/23 06:50:57;;;;;;;8.13;3.63;;;17.30;99.90;;;;;;5069673;28;20537;-45
2022/05/23 06:53:24;;;;;;;9.60;4.22;;;17.30;99.90;;;;;;5070011;28;20068;-45
2022/05/23 06:55:51;;;;;;;5.93;3.85;;;17.40;99.90;;;;;;5071720;28;20044;-46
2022/05/23 06:58:20;;;;;;;9.73;4.55;;;17.40;99.90;;;;;;5071578;28;20040;-45
2022/05/23 07:00:45;;;;;;;8.18;4.25;;;17.50;99.90;;;;;;5071617;28;20501;-45
2022/05/23 07:03:11;;;;;;;5.63;4.05;;;17.60;99.90;;;;;;5069963;28;20036;-47
2022/05/23 07:13:53;;;;;;;8.68;4.60;;;17.90;99.90;;;;;;5073473;28;20047;-48
2022/05/23 07:16:19;;;;;;;7.35;3.33;;;18.00;99.80;;;;;;5076013;28;20028;-45
2022/05/23 07:18:45;;;;;;;9.65;4.55;;;18.10;99.90;;;;;;5081198;28;20047;-45
2022/05/23 07:21:11;;;;;;;9.48;4.63;;;18.10;99.80;;;;;;5079501;28;20723;-47
2022/05/23 07:23:37;;;;;;;6.28;3.83;;;18.20;99.70;;;;;;5071072;28;20035;-46
2022/05/23 07:26:05;;;;;;;9.05;3.88;;;18.20;99.90;;;;;;5073220;28;20036;-45
2022/05/23 07:28:31;;;;;;;8.40;3.72;;;18.30;99.80;;;;;;5081826;28;20051;-46
2022/05/23 07:30:57;;;;;;;7.47;4.05;;;18.40;99.30;;;;;;5074688;28;20044;-46
2022/05/23 07:33:23;;;;;;;;;;;18.40;99.60;;;;;;5076880;28;20058;-46
2022/05/23 07:35:59;;;;;;;11.80;4.32;;;18.40;99.40;;;;;;5070779;28;19924;-47
2022/05/23 07:38:25;;;;;;;4.97;3.85;;;18.50;99.30;;;;;;5084364;28;20516;-45
2022/05/23 07:40:51;;;;;;;;;;;18.60;99.30;;;;;;5073564;28;20135;-46
2022/05/23 07:43:18;;;;;;;9.00;5.45;;;18.80;99.50;;;;;;5075984;28;19921;-46
2022/05/23 07:45:43;;;;;;;9.30;4.68;;;18.80;99.50;;;;;;5069873;28;20032;-44
2022/05/23 07:48:09;;;;;;;6.78;4.47;;;18.90;99.00;;;;;;5076016;28;20490;-47
2022/05/23 07:50:34;;;;;;;8.13;3.92;;;18.90;99.00;;;;;;5076454;28;20753;-45
2022/05/23 08:01:13;;;;;;;5.38;4.00;;;19.40;98.20;;;;;;5074499;28;20045;-45
2022/05/23 08:03:40;;;;;;;7.60;3.75;;;19.50;98.30;;;;;;5073456;28;20532;-46
2022/05/23 08:06:05;;;;;;;5.18;3.40;;;19.60;98.10;;;;;;5074421;28;20115;-46
2022/05/23 08:08:31;;;;;;;13.68;3.40;;;19.80;97.80;;;;;;5079780;28;20166;-47
2022/05/23 08:10:59;;;;;;;7.07;3.78;;;19.90;97.60;;;;;;5079213;28;20171;-45
2022/05/23 08:13:24;;;;;;;7.00;3.85;;;20.00;97.00;;;;;;5082180;28;20044;-45
2022/05/23 08:15:50;;;;;;;5.53;3.50;;;20.20;97.70;;;;;;5073707;28;20457;-46
2022/05/23 08:18:17;;;;;;;7.30;3.05;;;20.40;96.90;;;;;;5081434;28;20723;-47
2022/05/23 08:20:43;;;;;;;9.43;3.70;;;20.50;96.90;;;;;;5081153;28;20043;-47
2022/05/23 08:23:09;;;;;;;9.65;2.63;;;20.60;96.40;;;;;;5082479;28;20040;-48
2022/05/23 08:25:35;;;;;;;11.60;3.78;;;20.70;96.90;;;;;;5073057;28;20043;-45
2022/05/23 08:28:00;;;;;;;11.60;4.50;;;20.80;97.10;;;;;;5071983;28;20040;-46
2022/05/23 08:30:27;;;;;;;;;;;21.00;97.10;;;;;;5071599;28;20086;-45
2022/05/23 08:32:53;;;;;;;5.27;2.77;;;21.10;96.00;;;;;;5077011;28;19942;-45
2022/05/23 08:35:21;;;;;;;7.82;2.35;;;21.30;95.50;;;;;;5070083;28;20055;-46
2022/05/23 08:37:46;;;;;;;6.43;3.00;;;21.40;95.00;;;;;;5083900;28;20118;-45
2022/05/23 08:40:12;;;;;;;4.68;2.55;;;21.50;95.50;;;;;;5080125;28;20115;-45
2022/05/23 08:42:51;;;;;;;5.13;2.75;;;21.60;94.80;;;;;;5078007;28;20137;-46
2022/05/23 08:45:26;;;;;;;4.68;2.10;;;21.70;94.20;;;;;;5075855;28;20031;-45
2022/05/23 08:48:15;;;;;;;9.70;2.40;;;21.80;94.20;;;;;;5076631;28;20154;-45
2022/05/23 08:51:15;;;;;;;7.05;2.28;;;21.90;94.00;;;;;;5079435;28;20055;-44
2022/05/23 08:53:51;;;;;;;4.53;2.00;;;22.00;94.00;;;;;;5076636;28;20055;-45
2022/05/23 08:56:39;;;;;;;9.38;2.60;;;22.20;93.20;;;;;;5080572;28;20042;-46
2022/05/23 08:59:22;;;;;;;5.50;2.17;;;22.40;92.50;;;;;;5080028;28;20067;-45
2022/05/23 09:02:01;;;;;;;4.05;1.90;;;22.50;92.80;;;;;;5073475;28;20033;-47
2022/05/23 09:04:57;;;;;;;3.78;1.50;;;22.70;91.00;;;;;;5078081;28;20103;-45
2022/05/23 09:07:38;;;;;;;3.47;1.70;;;22.80;91.80;;;;;;5078118;28;20039;-46
2022/05/23 09:10:11;;;;;;;6.28;1.55;;;22.90;90.80;;;;;;5078092;28;20040;-46
2022/05/23 09:12:36;;;;;;;2.15;1.65;;;22.90;90.40;;;;;;5079838;28;20205;-47
2022/05/23 09:15:02;;;;;;;;;;;23.10;90.60;;;;;;5078980;28;20043;-46
2022/05/23 09:17:37;;;;;;;4.05;1.63;;;23.10;90.40;;;;;;5083746;28;19927;-46
2022/05/23 09:20:13;;;;;;;7.85;1.35;;;23.20;90.50;;;;;;5073763;28;20531;-47
2022/05/23 09:22:50;;;;;;;5.72;1.73;;;23.30;88.60;;;;;;5078943;28;20097;-46
2022/05/23 09:25:19;;;;;;;5.95;1.83;;;23.40;88.80;;;;;;5076000;28;20070;-47
2022/05/23 09:28:00;;;;;;;9.82;1.90;;;23.40;88.30;;;;;;5076211;28;20040;-46
2022/05/23 09:30:27;;;;;;;6.82;2.08;;;23.50;89.20;;;;;;5079180;28;20078;-46
2022/05/23 09:33:02;;;;;;;6.22;1.30;;;23.60;88.70;;;;;;5076277;28;20066;-46
2022/05/23 09:35:28;;;;;;;4.22;1.08;;;23.70;86.20;;;;;;5074967;28;20044;-45
2022/05/23 09:38:29;;;;;;;3.03;1.05;;;23.70;84.80;;;;;;5080701;28;20536;-45
2022/05/23 09:40:55;;;;;;;8.43;1.67;;;23.60;84.20;;;;;;5004318;28;20385;-45
2022/05/23 09:49:14;;;;;;;8.27;2.72;;;23.30;84.40;;;;;;5013573;28;20042;-45
2022/05/23 09:52:29;;;;;;;4.05;1.52;;;23.40;85.20;;;;;;5021622;28;20056;-46
2022/05/23 09:55:06;;;;;;;4.00;1.20;;;23.40;84.70;;;;;;4907942;29;20672;-45
2022/05/23 09:57:34;;;;;;;3.97;1.40;;;23.50;84.00;;;;;;4924611;29;20200;-46
2022/05/23 10:00:26;;;;;;;6.35;1.20;;;23.60;84.20;;;;;;4926613;29;20071;-46
2022/05/23 10:02:56;;;;;;;3.13;1.58;;;23.60;84.00;;;;;;4927667;29;20036;-45
2022/05/23 10:05:38;;;;;;;6.15;1.35;;;23.50;82.60;;;;;;4910932;29;20052;-46
2022/05/23 10:08:25;;;;;;;4.75;1.17;;;23.50;84.30;;;;;;4928003;29;20050;-47
2022/05/23 10:10:58;;;;;;;4.63;1.10;;;23.60;83.90;;;;;;4924065;29;20146;-45
2022/05/23 10:13:29;;;;;;;1.60;0.80;;;23.70;83.30;;;;;;4926051;29;20193;-46
2022/05/23 10:15:57;;;;;;;6.30;0.90;;;23.90;82.40;;;;;;4928627;29;20047;-46
2022/05/23 10:18:29;;;;;;;1.52;0.80;;;24.00;82.40;;;;;;4986801;28;20057;-45
2022/05/23 10:20:56;;;;;;;3.15;1.27;;;24.10;80.20;;;;;;4989989;28;20313;-47
2022/05/23 10:23:30;;;;;;;2.85;1.17;;;24.10;79.90;;;;;;4994883;28;20538;-45
2022/05/23 10:26:19;;;;;;;3.33;0.90;;;24.00;80.70;;;;;;4995126;28;20045;-48
2022/05/23 10:29:02;;;;;;;3.28;1.50;;;24.00;79.50;;;;;;4999675;28;20811;-45
2022/05/23 10:32:03;;;;;;;6.18;1.48;;;24.10;81.50;;;;;;5072201;28;20471;-46
2022/05/23 10:34:48;;;;;;;4.20;1.17;;;24.20;79.70;;;;;;5080819;28;20044;-45
2022/05/23 10:37:20;;;;;;;4.93;1.02;;;24.40;81.00;;;;;;5071652;28;20270;-46
2022/05/23 10:42:49;;;;;;;3.58;0.77;;;24.50;77.80;;;;;;5072856;28;20131;-45
2022/05/23 10:45:27;;;;;;;4.70;1.17;;;24.70;78.40;;;;;;5073860;28;20035;-48
2022/05/23 10:48:21;;;;;;;3.38;0.95;;;24.70;76.60;;;;;;5074361;28;20111;-45
2022/05/23 10:51:08;;;;;;;3.60;1.35;;;24.80;73.90;;;;;;5080253;28;20544;-45
2022/05/23 10:54:01;;;;;;;3.03;1.10;;;24.80;78.00;;;;;;5068609;28;20044;-45
2022/05/23 10:57:05;;;;;;;6.40;1.13;;;24.90;78.10;;;;;;5081151;28;20071;-46
2022/05/23 10:59:51;;;;;;;5.93;1.20;;;24.90;76.30;;;;;;5081781;28;20048;-49
2022/05/23 11:02:48;;;;;;;6.35;1.58;;;25.00;79.00;;;;;;5078803;28;20227;-46
2022/05/23 11:05:24;;;;;;;4.20;1.50;;;25.10;78.50;;;;;;5076915;28;20047;-46
2022/05/23 11:08:02;;;;;;;3.13;1.10;;;25.20;76.10;;;;;;5074707;28;20527;-46
2022/05/23 11:10:46;;;;;;;2.28;1.00;;;25.20;74.50;;;;;;5069993;28;20140;-46
2022/05/23 11:13:19;;;;;;;2.45;1.35;;;25.20;73.10;;;;;;5072620;28;20485;-47
2022/05/23 11:16:02;;;;;;;2.58;1.05;;;25.20;74.50;;;;;;5080340;28;20123;-45
2022/05/23 11:18:54;;;;;;;2.88;1.58;;;25.10;72.70;;;;;;5083905;28;20068;-45
2022/05/23 11:21:29;;;;;;;6.13;1.30;;;24.90;74.00;;;;;;5085703;28;20418;-46
2022/05/23 11:24:05;;;;;;;2.75;1.98;;;24.80;74.80;;;;;;5082627;28;20758;-45
2022/05/23 11:26:37;;;;;;;3.60;1.63;;;24.80;75.30;;;;;;5085874;28;20085;-45
2022/05/23 11:35:06;;;;;;;3.72;1.50;;;24.90;78.00;;;;;;5065310;28;20040;-46
2022/05/23 11:37:42;;;;;;;2.85;1.55;;;25.10;77.00;;;;;;5067743;28;20059;-47
2022/05/23 11:40:11;;;;;;;4.45;1.25;;;25.30;74.70;;;;;;5063242;28;20402;-46
2022/05/23 11:43:00;;;;;;;3.80;0.93;;;25.50;74.50;;;;;;5066650;28;20059;-46
2022/05/23 11:48:39;;;;;;;4.43;1.45;;;25.50;73.40;;;;;;5067269;28;20519;-46
2022/05/23 11:51:12;;;;;;;4.75;1.20;;;25.50;73.60;;;;;;5064932;28;20285;-47
2022/05/23 11:53:52;;;;;;;4.85;0.88;;;25.50;72.90;;;;;;5067175;28;20048;-48
2022/05/23 11:56:38;;;;;;;1.42;0.70;;;25.20;70.70;;;;;;5065467;28;20056;-48
2022/05/23 11:59:07;;;;;;;2.30;0.80;;;25.10;69.20;;;;;;5066021;28;20468;-47
2022/05/23 12:01:34;;;;;;;3.15;0.73;;;24.90;71.10;;;;;;5064570;28;20044;-47
2022/05/23 12:03:59;;;;;;;15.75;1.30;;;24.90;71.20;;;;;;5051164;28;20178;-47
2022/05/23 12:06:25;;;;;;;4.47;1.30;;;24.70;69.60;;;;;;5057014;28;20119;-49
2022/05/23 12:09:24;;;;;;;4.55;1.35;;;24.70;70.60;;;;;;5065063;28;20089;-47
2022/05/23 12:11:52;;;;;;;4.95;1.10;;;24.60;71.30;;;;;;5057807;28;20506;-48
2022/05/23 12:14:19;;;;;;;4.10;1.00;;;24.60;72.90;;;;;;5075158;28;20109;-47
2022/05/23 12:17:12;;;;;;;3.83;1.10;;;24.60;73.90;;;;;;5081551;28;20070;-49
2022/05/23 12:19:41;;;;;;;6.18;1.33;;;24.70;72.20;;;;;;5077682;28;20047;-49
2022/05/23 12:22:15;;;;;;;2.33;1.52;;;24.70;73.80;;;;;;5082748;28;20040;-47
2022/05/23 12:25:01;;;;;;;5.75;1.50;;;24.70;70.80;;;;;;5073510;28;20040;-48
2022/05/23 12:27:47;;;;;;;2.78;1.15;;;24.60;72.80;;;;;;5082097;28;20058;-47
2022/05/23 12:30:22;;;;;;;5.72;1.20;;;24.40;71.70;;;;;;5067213;28;20406;-47
2022/05/23 12:32:47;;;;;;;4.90;1.40;;;24.30;71.60;;;;;;5082564;28;20043;-46
2022/05/23 12:35:16;;;;;;;8.25;1.45;;;24.20;71.80;;;;;;5078503;28;20645;-49
2022/05/23 12:38:08;;;;;;;4.35;1.95;;;24.20;73.00;;;;;;5078108;28;20044;-46
2022/05/23 12:40:49;;;;;;;2.42;1.52;;;24.20;73.40;;;;;;5078171;28;20036;-47
2022/05/23 12:43:25;;;;;;;7.32;1.45;;;24.10;73.30;;;;;;5073618;28;20078;-47
2022/05/23 12:46:10;;;;;;;5.78;2.28;;;24.10;73.90;;;;;;5068058;28;20036;-47
2022/05/23 12:48:56;;;;;;;5.88;2.38;;;24.10;73.20;;;;;;5067083;28;20163;-47
2022/05/23 12:51:48;;;;;;;6.47;1.75;;;24.10;74.00;;;;;;5079318;28;20089;-47
2022/05/23 12:54:26;;;;;;;6.57;1.55;;;24.00;75.40;;;;;;5072685;28;20109;-47
2022/05/23 12:57:16;;;;;;;3.78;1.83;;;24.00;73.90;;;;;;5071493;28;20416;-48
2022/05/23 13:00:03;;;;;;;4.35;1.90;;;24.00;74.50;;;;;;5072462;28;20044;-48
2022/05/23 13:02:40;;;;;;;2.25;1.92;;;24.00;74.60;;;;;;5082193;28;20093;-47
2022/05/23 13:05:12;;;;;;;2.90;1.60;;;24.00;75.00;;;;;;5074743;28;20508;-47
2022/05/23 13:07:41;;;;;;;7.07;2.08;;;24.00;75.90;;;;;;5082421;28;20040;-49
2022/05/23 13:10:10;;;;;;;6.13;2.30;;;23.90;75.90;;;;;;5076606;28;20111;-48
2022/05/23 13:12:44;;;;;;;3.88;2.65;;;23.90;76.80;;;;;;5076352;28;20075;-46
2022/05/23 13:15:20;;;;;;;2.95;2.70;;;23.90;77.00;;;;;;5068288;28;20040;-47
2022/05/23 13:17:46;;;;;;;5.00;3.28;;;23.80;76.70;;;;;;5064967;28;20048;-47
2022/05/23 13:23:25;;;;;;;4.70;3.10;;;23.90;77.10;;;;;;5055188;28;20044;-47
2022/05/23 13:25:52;;;;;;;4.10;1.58;;;23.90;76.80;;;;;;5064875;28;20047;-47
2022/05/23 13:28:19;;;;;;;4.35;2.50;;;23.90;75.30;;;;;;5065517;28;20028;-46
2022/05/23 13:30:51;;;;;;;2.55;2.03;;;23.90;76.40;;;;;;5065186;28;20486;-47
2022/05/23 13:33:19;;;;;;;3.33;1.90;;;23.80;75.40;;;;;;5064142;28;20071;-47
2022/05/23 13:35:47;;;;;;;6.20;1.75;;;23.80;75.70;;;;;;5063276;28;20068;-47
2022/05/23 13:38:16;;;;;;;4.32;2.13;;;23.80;75.80;;;;;;5065623;28;20106;-48
2022/05/23 13:40:46;;;;;;;7.70;2.10;;;23.80;77.30;;;;;;5062872;28;20045;-47
2022/05/23 13:43:23;;;;;;;4.53;2.65;;;23.80;77.70;;;;;;5064985;28;20048;-47
2022/05/23 13:46:00;;;;;;;5.25;2.22;;;23.80;76.40;;;;;;5057801;28;20044;-47
2022/05/23 13:49:00;;;;;;;5.05;2.03;;;23.80;77.20;;;;;;5064320;28;20036;-47
2022/05/23 13:51:38;;;;;;;8.23;2.47;;;23.90;78.20;;;;;;5063271;28;20033;-48
2022/05/23 13:54:12;;;;;;;5.32;2.25;;;23.90;77.80;;;;;;5064147;28;20121;-47
2022/05/23 13:56:45;;;;;;;5.03;2.53;;;23.90;78.90;;;;;;5056326;28;20079;-49
2022/05/23 13:59:38;;;;;;;4.40;1.90;;;23.90;77.60;;;;;;5067144;28;20419;-48
2022/05/23 14:02:11;;;;;;;7.65;2.53;;;23.90;77.80;;;;;;5063624;28;20494;-47
2022/05/23 14:04:40;;;;;;;4.63;2.08;;;23.90;77.40;;;;;;5076987;28;20429;-48
2022/05/23 14:07:14;;;;;;;3.63;2.13;;;23.90;77.70;;;;;;5076821;28;20082;-49
2022/05/23 14:09:49;;;;;;;5.25;2.30;;;23.80;77.40;;;;;;5068807;28;20734;-47